createdAt,value
2018-08-20T00:00:48.043Z,21.20
2018-08-20T00:03:16.906Z,21.30
2018-08-20T00:05:50.099Z,21.40
2018-08-20T00:08:18.641Z,21.50
2018-08-20T00:10:46.724Z,21.60
2018-08-20T00:13:15.156Z,21.70
2018-08-20T00:15:43.705Z,21.80
2018-08-20T00:18:14.669Z,21.80
2018-08-20T00:20:43.508Z,21.80
2018-08-20T00:23:11.953Z,21.80
2018-08-20T00:25:40.401Z,21.90
2018-08-20T00:28:09.249Z,21.90
2018-08-20T00:30:37.693Z,21.90
2018-08-20T00:33:05.778Z,21.80
2018-08-20T00:35:33.939Z,21.80
2018-08-20T00:38:02.761Z,21.70
2018-08-20T00:40:31.261Z,21.80
2018-08-20T00:42:59.770Z,21.80
2018-08-20T00:45:28.179Z,21.80
2018-08-20T00:47:56.996Z,21.80
2018-08-20T00:50:25.514Z,21.80
2018-08-20T00:52:54.300Z,21.80
2018-08-20T00:55:23.098Z,21.80
2018-08-20T00:57:51.820Z,21.80
2018-08-20T01:00:19.890Z,21.80
2018-08-20T01:02:48.781Z,21.80
2018-08-20T01:05:16.865Z,21.90
2018-08-20T01:07:45.411Z,21.90
2018-08-20T01:10:13.882Z,21.90
2018-08-20T01:12:42.367Z,21.90
2018-08-20T01:15:10.818Z,22.00
2018-08-20T01:17:39.267Z,22.00
2018-08-20T01:20:07.807Z,21.90
2018-08-20T01:22:36.032Z,21.90
2018-08-20T01:25:04.273Z,21.90
2018-08-20T01:27:32.715Z,21.90
2018-08-20T01:30:00.780Z,22.00
2018-08-20T01:32:28.955Z,22.00
2018-08-20T01:35:13.364Z,21.90
2018-08-20T01:37:41.773Z,21.90
2018-08-20T01:40:10.243Z,21.90
2018-08-20T01:42:38.977Z,21.90
2018-08-20T01:45:07.030Z,21.80
2018-08-20T01:47:35.846Z,21.80
2018-08-20T01:50:04.606Z,21.80
2018-08-20T01:52:33.001Z,21.80
2018-08-20T01:55:01.467Z,21.80
2018-08-20T01:57:30.319Z,21.80
2018-08-20T01:59:59.103Z,21.70
2018-08-20T02:02:27.280Z,21.70
2018-08-20T02:04:55.486Z,21.70
2018-08-20T02:07:23.601Z,21.70
2018-08-20T02:09:51.907Z,21.60
2018-08-20T02:12:20.408Z,21.60
2018-08-20T02:14:48.897Z,21.60
2018-08-20T02:17:16.934Z,21.60
2018-08-20T02:19:45.483Z,21.60
2018-08-20T02:22:14.353Z,21.50
2018-08-20T02:24:43.196Z,21.60
2018-08-20T02:27:11.679Z,21.50
2018-08-20T02:29:39.909Z,21.60
2018-08-20T02:32:08.475Z,21.50
2018-08-20T02:34:37.218Z,21.50
2018-08-20T02:37:05.556Z,21.50
2018-08-20T02:39:34.270Z,21.40
2018-08-20T02:42:02.772Z,21.40
2018-08-20T02:44:31.292Z,21.40
2018-08-20T02:46:59.371Z,21.30
2018-08-20T02:49:27.853Z,21.30
2018-08-20T02:51:55.941Z,21.20
2018-08-20T02:54:24.057Z,21.30
2018-08-20T02:56:52.925Z,21.30
2018-08-20T02:59:21.071Z,21.20
2018-08-20T03:01:49.835Z,21.20
2018-08-20T03:04:18.618Z,21.30
2018-08-20T03:06:47.336Z,21.20
2018-08-20T03:09:16.561Z,21.30
2018-08-20T03:11:44.746Z,21.20
2018-08-20T03:14:13.623Z,21.10
2018-08-20T03:16:42.379Z,21.10
2018-08-20T03:19:11.234Z,21.00
2018-08-20T03:21:39.451Z,20.90
2018-08-20T03:24:07.543Z,20.80
2018-08-20T03:26:36.480Z,20.80
2018-08-20T03:29:04.984Z,20.90
2018-08-20T03:31:33.439Z,20.80
2018-08-20T03:34:01.974Z,20.80
2018-08-20T03:36:30.208Z,20.80
2018-08-20T03:38:58.657Z,20.70
2018-08-20T03:41:27.175Z,20.70
2018-08-20T03:43:55.914Z,20.70
2018-08-20T03:46:24.352Z,20.60
2018-08-20T03:48:52.523Z,20.50
2018-08-20T03:51:20.664Z,20.40
2018-08-20T03:53:49.054Z,20.40
2018-08-20T03:56:17.862Z,20.30
2018-08-20T03:58:46.091Z,20.20
2018-08-20T04:01:14.907Z,20.10
2018-08-20T04:03:43.730Z,20.00
2018-08-20T04:06:12.244Z,20.00
2018-08-20T04:08:41.021Z,19.90
2018-08-20T04:11:09.542Z,19.90
2018-08-20T04:13:37.950Z,19.90
2018-08-20T04:16:06.390Z,19.90
2018-08-20T04:18:35.226Z,19.90
2018-08-20T04:21:03.334Z,19.80
2018-08-20T04:23:32.116Z,19.90
2018-08-20T04:26:00.583Z,19.90
2018-08-20T04:28:29.041Z,19.90
2018-08-20T04:30:57.450Z,19.90
2018-08-20T04:33:27.459Z,20.10
2018-08-20T04:35:55.914Z,20.10
2018-08-20T04:38:24.702Z,20.10
2018-08-20T04:40:53.133Z,20.10
2018-08-20T04:43:21.925Z,20.10
2018-08-20T04:45:50.751Z,20.10
2018-08-20T04:48:19.494Z,20.10
2018-08-20T04:50:47.987Z,20.20
2018-08-20T04:53:16.966Z,20.20
2018-08-20T04:55:45.812Z,20.10
2018-08-20T04:58:14.601Z,20.10
2018-08-20T05:00:43.341Z,20.10
2018-08-20T05:03:16.049Z,20.00
2018-08-20T05:05:44.266Z,20.20
2018-08-20T05:08:12.702Z,20.40
2018-08-20T05:10:41.535Z,20.50
2018-08-20T05:13:10.447Z,20.60
2018-08-20T05:15:39.257Z,20.70
2018-08-20T05:18:07.401Z,20.80
2018-08-20T05:20:36.214Z,20.80
2018-08-20T05:23:05.637Z,20.90
2018-08-20T05:25:34.418Z,21.00
2018-08-20T05:28:03.279Z,21.10
2018-08-20T05:30:31.384Z,21.10
2018-08-20T05:33:00.182Z,21.10
2018-08-20T05:35:28.989Z,21.20
2018-08-20T05:37:57.528Z,21.30
2018-08-20T05:40:25.966Z,21.20
2018-08-20T05:42:54.175Z,21.40
2018-08-20T05:45:22.367Z,21.50
2018-08-20T05:47:50.708Z,21.70
2018-08-20T05:50:18.780Z,21.80
2018-08-20T05:52:47.308Z,21.90
2018-08-20T05:55:15.426Z,22.00
2018-08-20T05:57:44.172Z,22.00
2018-08-20T06:00:15.185Z,22.00
2018-08-20T06:02:43.937Z,21.90
2018-08-20T06:05:12.097Z,21.90
2018-08-20T06:07:40.862Z,22.10
2018-08-20T06:10:09.893Z,22.40
2018-08-20T06:12:38.160Z,22.50
2018-08-20T06:15:09.686Z,22.80
2018-08-20T06:17:38.583Z,23.00
2018-08-20T06:20:12.080Z,22.90
2018-08-20T06:22:40.224Z,23.00
2018-08-20T06:25:09.817Z,23.10
2018-08-20T06:27:38.209Z,23.50
2018-08-20T06:30:07.393Z,23.40
2018-08-20T06:32:36.069Z,23.20
2018-08-20T06:35:05.080Z,23.20
2018-08-20T06:37:33.969Z,23.50
2018-08-20T06:40:02.472Z,23.40
2018-08-20T06:42:30.966Z,23.30
2018-08-20T06:44:59.747Z,23.20
2018-08-20T06:47:27.903Z,23.30
2018-08-20T06:49:56.285Z,23.50
2018-08-20T06:52:25.138Z,23.40
2018-08-20T06:54:54.001Z,23.40
2018-08-20T06:57:22.474Z,23.70
2018-08-20T06:59:50.958Z,23.80
2018-08-20T07:02:19.196Z,24.10
2018-08-20T07:04:48.120Z,24.40
2018-08-20T07:07:16.248Z,24.70
2018-08-20T07:09:45.022Z,24.90
2018-08-20T07:12:13.452Z,25.10
2018-08-20T07:14:41.596Z,25.40
2018-08-20T07:17:10.032Z,25.70
2018-08-20T07:19:38.550Z,26.30
2018-08-20T07:22:06.993Z,26.20
2018-08-20T07:24:35.945Z,25.90
2018-08-20T07:27:04.398Z,25.40
2018-08-20T07:29:38.606Z,24.80
2018-08-20T07:32:09.103Z,24.20
2018-08-20T07:34:39.519Z,23.80
2018-08-20T07:37:08.603Z,23.60
2018-08-20T07:39:37.073Z,23.40
2018-08-20T07:42:05.565Z,23.60
2018-08-20T07:44:34.297Z,23.60
2018-08-20T07:47:02.789Z,23.60
2018-08-20T07:49:30.906Z,23.60
2018-08-20T07:51:59.019Z,23.80
2018-08-20T07:54:27.529Z,24.00
2018-08-20T07:56:55.867Z,24.20
2018-08-20T07:59:24.067Z,24.10
2018-08-20T08:01:52.222Z,24.10
2018-08-20T08:04:21.028Z,24.30
2018-08-20T08:06:49.154Z,24.00
2018-08-20T08:09:17.270Z,24.00
2018-08-20T08:11:45.451Z,24.20
2018-08-20T08:14:13.979Z,24.30
2018-08-20T08:16:42.577Z,23.90
2018-08-20T08:19:10.654Z,23.50
2018-08-20T08:21:38.772Z,23.40
2018-08-20T08:24:07.281Z,23.30
2018-08-20T08:26:36.131Z,23.20
2018-08-20T08:29:04.740Z,23.40
2018-08-20T08:31:33.529Z,23.40
2018-08-20T08:34:01.741Z,23.50
2018-08-20T08:36:29.928Z,23.70
2018-08-20T08:38:58.383Z,23.70
2018-08-20T08:41:26.449Z,23.60
2018-08-20T08:43:54.877Z,23.60
2018-08-20T08:46:23.364Z,23.50
2018-08-20T08:48:51.540Z,23.50
2018-08-20T08:51:20.175Z,23.50
2018-08-20T08:53:48.402Z,23.40
2018-08-20T08:56:16.519Z,23.40
2018-08-20T08:58:44.597Z,23.40
2018-08-20T09:01:13.020Z,23.50
2018-08-20T09:03:41.899Z,23.50
2018-08-20T09:06:09.982Z,23.50
2018-08-20T09:08:38.460Z,23.40
2018-08-20T09:11:07.210Z,23.30
2018-08-20T09:13:36.050Z,23.30
2018-08-20T09:16:04.750Z,23.30
2018-08-20T09:18:33.506Z,23.30
2018-08-20T09:21:03.628Z,23.40
2018-08-20T09:23:32.486Z,23.40
2018-08-20T09:26:00.979Z,23.70
2018-08-20T09:28:29.856Z,24.00
2018-08-20T09:30:58.028Z,24.10
2018-08-20T09:33:26.220Z,24.20
2018-08-20T09:35:54.614Z,24.40
2018-08-20T09:38:23.130Z,24.50
2018-08-20T09:40:51.679Z,24.60
2018-08-20T09:43:20.457Z,24.60
2018-08-20T09:45:48.521Z,24.90
2018-08-20T09:48:17.306Z,24.90
2018-08-20T09:50:45.805Z,24.40
2018-08-20T09:53:13.944Z,24.30
2018-08-20T09:55:42.204Z,24.40
2018-08-20T09:58:10.307Z,24.40
2018-08-20T10:00:40.068Z,24.40
2018-08-20T10:03:09.217Z,24.20
2018-08-20T10:05:37.684Z,24.00
2018-08-20T10:08:05.819Z,23.80
2018-08-20T10:10:34.242Z,23.60
2018-08-20T10:13:02.290Z,23.60
2018-08-20T10:15:30.873Z,23.60
2018-08-20T10:17:59.257Z,23.70
2018-08-20T10:20:27.734Z,23.80
2018-08-20T10:22:56.313Z,23.80
2018-08-20T10:25:24.728Z,23.90
2018-08-20T10:27:53.503Z,23.80
2018-08-20T10:30:21.902Z,23.60
2018-08-20T10:32:50.071Z,23.50
2018-08-20T10:35:18.482Z,23.40
2018-08-20T10:37:47.393Z,23.50
2018-08-20T10:40:16.034Z,23.40
2018-08-20T10:42:44.510Z,23.50
2018-08-20T10:45:16.193Z,23.70
2018-08-20T10:47:46.522Z,23.90
2018-08-20T10:50:15.901Z,24.00
2018-08-20T10:52:45.799Z,23.90
2018-08-20T10:55:13.963Z,23.80
2018-08-20T10:57:43.395Z,23.90
2018-08-20T11:00:12.074Z,23.90
2018-08-20T11:02:40.657Z,24.30
2018-08-20T11:05:11.655Z,25.10
2018-08-20T11:07:39.773Z,25.70
2018-08-20T11:10:07.911Z,25.70
2018-08-20T11:12:36.174Z,25.50
2018-08-20T11:15:05.770Z,25.40
2018-08-20T11:17:34.596Z,25.20
2018-08-20T11:20:02.974Z,25.00
2018-08-20T11:22:31.926Z,24.80
2018-08-20T11:25:00.349Z,24.70
2018-08-20T11:27:29.305Z,24.60
2018-08-20T11:29:58.239Z,24.40
2018-08-20T11:32:26.998Z,24.40
2018-08-20T11:34:55.740Z,24.50
2018-08-20T11:37:24.503Z,24.50
2018-08-20T11:39:53.253Z,24.70
2018-08-20T11:42:21.689Z,24.90
2018-08-20T11:44:50.459Z,24.90
2018-08-20T11:47:18.884Z,25.00
2018-08-20T11:49:47.387Z,25.00
2018-08-20T11:52:16.121Z,25.10
2018-08-20T11:54:44.922Z,24.60
2018-08-20T11:57:13.688Z,24.40
2018-08-20T11:59:42.443Z,24.50
2018-08-20T12:02:10.625Z,24.60
2018-08-20T12:04:39.393Z,24.60
2018-08-20T12:07:07.877Z,24.70
2018-08-20T12:09:36.534Z,24.80
2018-08-20T12:12:04.676Z,24.90
2018-08-20T12:14:33.113Z,24.80
2018-08-20T12:17:01.913Z,24.80
2018-08-20T12:19:30.718Z,24.70
2018-08-20T12:21:59.436Z,24.80
2018-08-20T12:24:27.954Z,24.60
2018-08-20T12:26:56.723Z,24.50
2018-08-20T12:29:25.228Z,24.50
2018-08-20T12:31:54.429Z,24.50
2018-08-20T12:34:22.881Z,24.70
2018-08-20T12:36:51.853Z,24.70
2018-08-20T12:39:20.435Z,24.70
2018-08-20T12:41:49.258Z,24.50
2018-08-20T12:44:18.042Z,24.50
2018-08-20T12:46:46.803Z,24.10
2018-08-20T12:49:15.509Z,24.00
2018-08-20T12:51:44.322Z,24.00
2018-08-20T12:54:12.717Z,24.10
2018-08-20T12:56:41.881Z,24.10
2018-08-20T12:59:10.433Z,24.20
2018-08-20T13:01:39.223Z,24.20
2018-08-20T13:04:07.673Z,24.20
2018-08-20T13:06:35.757Z,24.20
2018-08-20T13:09:05.550Z,24.20
2018-08-20T13:11:33.974Z,24.10
2018-08-20T13:14:02.399Z,24.00
2018-08-20T13:16:31.113Z,24.00
2018-08-20T13:18:59.231Z,23.90
2018-08-20T13:21:27.302Z,23.80
2018-08-20T13:23:56.138Z,23.80
2018-08-20T13:26:24.936Z,23.80
2018-08-20T13:28:53.645Z,23.80
2018-08-20T13:31:22.027Z,24.10
2018-08-20T13:33:50.750Z,24.40
2018-08-20T13:36:19.834Z,24.70
2018-08-20T13:38:48.248Z,24.90
2018-08-20T13:41:16.712Z,24.70
2018-08-20T13:43:45.083Z,24.40
2018-08-20T13:46:13.190Z,24.20
2018-08-20T13:48:41.682Z,24.10
2018-08-20T13:51:10.521Z,24.00
2018-08-20T13:53:39.468Z,24.00
2018-08-20T13:56:08.623Z,24.10
2018-08-20T13:58:36.995Z,24.20
2018-08-20T14:01:05.167Z,24.50
2018-08-20T14:03:33.800Z,24.70
2018-08-20T14:06:02.351Z,24.80
2018-08-20T14:08:30.772Z,24.90
2018-08-20T14:10:58.947Z,25.20
2018-08-20T14:13:27.474Z,25.30
2018-08-20T14:15:55.837Z,25.20
2018-08-20T14:18:24.256Z,24.90
2018-08-20T14:21:02.908Z,24.80
2018-08-20T14:23:31.699Z,24.60
2018-08-20T14:25:59.800Z,24.60
2018-08-20T14:28:28.436Z,24.70
2018-08-20T14:30:56.934Z,24.60
2018-08-20T14:33:25.332Z,24.50
2018-08-20T14:35:54.140Z,24.60
2018-08-20T14:38:22.282Z,24.80
2018-08-20T14:40:51.145Z,24.90
2018-08-20T14:43:19.309Z,25.00
2018-08-20T14:45:52.940Z,25.40
2018-08-20T14:48:21.062Z,25.30
2018-08-20T14:50:49.197Z,25.30
2018-08-20T14:53:17.708Z,25.20
2018-08-20T14:55:45.808Z,25.10
2018-08-20T14:58:14.854Z,25.10
2018-08-20T15:00:43.347Z,25.00
2018-08-20T15:03:12.229Z,24.80
2018-08-20T15:05:41.134Z,24.70
2018-08-20T15:08:09.570Z,24.70
2018-08-20T15:10:38.025Z,24.40
2018-08-20T15:13:06.254Z,24.10
2018-08-20T15:15:35.147Z,23.90
2018-08-20T15:18:03.425Z,23.80
2018-08-20T15:20:32.186Z,23.70
2018-08-20T15:23:00.930Z,23.80
2018-08-20T15:25:29.436Z,23.90
2018-08-20T15:27:57.734Z,23.90
2018-08-20T15:30:26.542Z,23.80
2018-08-20T15:32:55.047Z,23.70
2018-08-20T15:35:23.548Z,23.70
2018-08-20T15:37:52.349Z,23.70
2018-08-20T15:40:20.839Z,23.80
2018-08-20T15:42:49.246Z,23.80
2018-08-20T15:45:17.743Z,23.80
2018-08-20T15:47:46.195Z,23.80
2018-08-20T15:50:14.334Z,24.00
2018-08-20T15:52:42.813Z,24.00
2018-08-20T15:55:11.016Z,24.10
2018-08-20T15:57:39.549Z,24.10
2018-08-20T16:00:08.800Z,24.10
2018-08-20T16:02:38.200Z,24.00
2018-08-20T16:05:07.051Z,23.90
2018-08-20T16:07:35.901Z,23.90
2018-08-20T16:10:04.688Z,23.90
2018-08-20T16:12:33.107Z,23.80
2018-08-20T16:15:01.868Z,23.80
2018-08-20T16:17:30.298Z,23.80
2018-08-20T16:19:59.024Z,23.70
2018-08-20T16:22:27.475Z,23.70
2018-08-20T16:24:55.918Z,23.70
2018-08-20T16:27:24.041Z,23.70
2018-08-20T16:29:52.797Z,23.60
2018-08-20T16:32:21.420Z,23.60
2018-08-20T16:34:49.836Z,23.60
2018-08-20T16:37:17.981Z,23.60
2018-08-20T16:39:46.280Z,23.70
2018-08-20T16:42:14.806Z,23.60
2018-08-20T16:44:43.376Z,23.60
2018-08-20T16:47:11.850Z,23.60
2018-08-20T16:49:40.744Z,23.50
2018-08-20T16:52:08.889Z,23.50
2018-08-20T16:54:37.103Z,23.50
2018-08-20T16:57:05.988Z,23.40
2018-08-20T16:59:34.491Z,23.30
2018-08-20T17:02:03.292Z,23.40
2018-08-20T17:04:38.692Z,23.30
2018-08-20T17:07:06.825Z,23.20
2018-08-20T17:09:35.394Z,23.10
2018-08-20T17:12:03.479Z,23.10
2018-08-20T17:14:32.259Z,23.00
2018-08-20T17:17:00.498Z,23.10
2018-08-20T17:19:28.620Z,23.20
2018-08-20T17:21:56.716Z,23.20
2018-08-20T17:24:40.693Z,23.20
2018-08-20T17:27:09.524Z,23.20
2018-08-20T17:29:38.010Z,23.20
2018-08-20T17:32:07.336Z,23.10
2018-08-20T17:34:38.536Z,23.10
2018-08-20T17:37:06.654Z,23.10
2018-08-20T17:39:39.868Z,23.00
2018-08-20T17:42:08.253Z,22.90
2018-08-20T17:44:37.008Z,22.90
2018-08-20T17:47:08.144Z,22.90
2018-08-20T17:49:36.627Z,22.90
2018-08-20T17:52:05.082Z,22.90
2018-08-20T17:54:33.824Z,22.90
2018-08-20T17:57:02.258Z,22.90
2018-08-20T17:59:31.018Z,22.80
2018-08-20T18:01:59.132Z,22.80
2018-08-20T18:04:27.630Z,22.60
2018-08-20T18:06:56.367Z,22.60
2018-08-20T18:09:25.159Z,22.60
2018-08-20T18:11:54.934Z,22.70
2018-08-20T18:14:24.664Z,22.60
2018-08-20T18:16:53.090Z,22.60
2018-08-20T18:19:21.185Z,22.60
2018-08-20T18:21:49.372Z,22.60
2018-08-20T18:24:19.225Z,22.60
2018-08-20T18:26:52.014Z,22.60
2018-08-20T18:29:20.069Z,22.60
2018-08-20T18:31:56.512Z,22.70
2018-08-20T18:34:24.949Z,22.60
2018-08-20T18:36:53.543Z,22.50
2018-08-20T18:39:22.029Z,22.50
2018-08-20T18:41:54.424Z,22.50
2018-08-20T18:44:23.130Z,22.50
2018-08-20T18:46:51.998Z,22.60
2018-08-20T18:49:20.573Z,22.50
2018-08-20T18:52:00.376Z,22.50
2018-08-20T18:54:28.591Z,22.60
2018-08-20T18:57:02.026Z,22.60
2018-08-20T18:59:30.615Z,22.50
2018-08-20T19:01:58.710Z,22.50
2018-08-20T19:04:30.414Z,22.50
2018-08-20T19:07:03.389Z,22.50
2018-08-20T19:09:32.208Z,22.50
2018-08-20T19:12:00.648Z,22.60
2018-08-20T19:14:29.470Z,22.60
2018-08-20T19:16:57.895Z,22.50
2018-08-20T19:19:28.446Z,22.50
2018-08-20T19:21:56.962Z,22.50
2018-08-20T19:24:28.218Z,22.60
2018-08-20T19:26:59.680Z,22.60
2018-08-20T19:29:29.799Z,22.60
2018-08-20T19:31:57.970Z,22.60
2018-08-20T19:34:33.304Z,22.60
2018-08-20T19:37:01.705Z,22.60
2018-08-20T19:39:29.886Z,22.60
2018-08-20T19:41:57.945Z,22.60
2018-08-20T19:44:26.026Z,22.60
2018-08-20T19:46:55.161Z,22.60
2018-08-20T19:49:24.111Z,22.60
2018-08-20T19:51:52.302Z,22.60
2018-08-20T19:54:20.716Z,22.60
2018-08-20T19:56:48.823Z,22.50
2018-08-20T19:59:23.886Z,22.50
2018-08-20T20:01:52.964Z,22.50
2018-08-20T20:04:21.425Z,22.40
2018-08-20T20:06:49.632Z,22.40
2018-08-20T20:09:18.059Z,22.40
2018-08-20T20:11:48.618Z,22.40
2018-08-20T20:14:16.889Z,22.40
2018-08-20T20:16:52.548Z,22.40
2018-08-20T20:19:21.106Z,22.40
2018-08-20T20:21:49.582Z,22.40
2018-08-20T20:24:18.343Z,22.40
2018-08-20T20:26:47.158Z,22.40
2018-08-20T20:29:15.667Z,22.40
2018-08-20T20:31:43.893Z,22.40
2018-08-20T20:34:12.321Z,22.40
2018-08-20T20:36:41.044Z,22.40
2018-08-20T20:39:11.554Z,22.40
2018-08-20T20:41:40.067Z,22.40
2018-08-20T20:44:09.551Z,22.40
2018-08-20T20:46:37.650Z,22.30
2018-08-20T20:49:05.789Z,22.30
2018-08-20T20:51:33.877Z,22.30
2018-08-20T20:54:02.302Z,22.30
2018-08-20T20:56:31.131Z,22.30
2018-08-20T20:58:59.269Z,22.30
2018-08-20T21:01:28.020Z,22.20
2018-08-20T21:03:56.524Z,22.20
2018-08-20T21:06:24.659Z,22.10
2018-08-20T21:08:53.030Z,22.10
2018-08-20T21:11:22.855Z,22.10
2018-08-20T21:13:51.342Z,22.10
2018-08-20T21:16:22.467Z,22.10
2018-08-20T21:18:53.607Z,22.10
2018-08-20T21:21:22.108Z,22.10
2018-08-20T21:23:50.203Z,22.10
2018-08-20T21:26:18.255Z,22.10
2018-08-20T21:28:48.319Z,22.10
2018-08-20T21:31:17.522Z,22.20
2018-08-20T21:33:46.358Z,22.10
2018-08-20T21:36:14.883Z,22.10
2018-08-20T21:38:43.302Z,22.10
2018-08-20T21:41:11.417Z,22.10
2018-08-20T21:43:45.196Z,22.10
2018-08-20T21:46:13.860Z,22.10
2018-08-20T21:48:42.758Z,22.20
2018-08-20T21:51:13.407Z,22.10
2018-08-20T21:53:41.907Z,22.10
2018-08-20T21:56:11.325Z,22.00
2018-08-20T21:58:41.075Z,22.00
2018-08-20T22:01:10.724Z,22.00
2018-08-20T22:03:39.392Z,22.00
2018-08-20T22:06:07.821Z,22.00
2018-08-20T22:08:36.295Z,22.00
2018-08-20T22:11:04.438Z,22.00
2018-08-20T22:13:32.910Z,22.10
2018-08-20T22:16:24.094Z,22.10
2018-08-20T22:18:54.576Z,22.00
2018-08-20T22:21:22.815Z,21.90
2018-08-20T22:23:50.950Z,21.90
2018-08-20T22:26:20.812Z,21.90
2018-08-20T22:28:50.668Z,21.90
2018-08-20T22:31:19.557Z,21.90
2018-08-20T22:33:55.197Z,21.80
2018-08-20T22:36:23.832Z,21.80
2018-08-20T22:38:53.081Z,21.80
2018-08-20T22:41:22.193Z,21.80
2018-08-20T22:43:50.807Z,21.60
2018-08-20T22:46:19.866Z,21.60
2018-08-20T22:48:51.598Z,21.60
2018-08-20T22:51:20.641Z,21.60
2018-08-20T22:53:50.896Z,21.70
2018-08-20T22:56:20.248Z,21.60
2018-08-20T22:58:48.391Z,21.60
2018-08-20T23:01:16.514Z,21.50
2018-08-20T23:03:44.979Z,21.50
2018-08-20T23:06:13.477Z,21.40
2018-08-20T23:08:41.858Z,21.30
2018-08-20T23:11:09.970Z,21.30
2018-08-20T23:13:38.455Z,21.20
2018-08-20T23:16:06.827Z,21.10
2018-08-20T23:18:35.061Z,21.10
2018-08-20T23:21:03.571Z,21.10
2018-08-20T23:23:34.672Z,21.10
2018-08-20T23:26:06.592Z,21.10
2018-08-20T23:28:38.548Z,21.00
2018-08-20T23:31:07.018Z,21.00
2018-08-20T23:33:39.469Z,20.90
2018-08-20T23:36:08.222Z,20.90
2018-08-20T23:38:36.988Z,20.90
2018-08-20T23:41:05.118Z,20.90
2018-08-20T23:43:33.637Z,20.90
2018-08-20T23:46:02.087Z,20.80
2018-08-20T23:48:30.535Z,20.80
2018-08-20T23:51:03.237Z,20.70
2018-08-20T23:53:31.362Z,20.70
2018-08-20T23:55:59.932Z,20.70
2018-08-20T23:58:28.365Z,20.70
